Brookville, Pennsylvania
Current Conditions -  °F | °C
As of 3:53 PM on Sunday 23 Nov 2014 (Local Time) from KDUJ Reporting Station
Clear Clear  
Wind Chill: 56°   Ceiling: Unl
Heat Index: 56°   Visibility: 10mi
Dew Point: 36°   Wind: 13mph
Humidity: 47%   Direction: 120°ESE
Pressure: 29.93"   Gusts: NA
Location:  41.16°N, 79.08°W
Report Text: KDUJ 232053Z AUTO 12011KT 10SM CLR 13/02 A2993 RMK AO2 SLP136 T01330022 56023
Loading
Personal Weather Stations






























Interactive Weather Map New forecast layout! Learn more

10-Day Weather Forecast

Advertisements
Track Severe Weather on mobile